Attleboro, MA (02703)

8:00 AM EDT on March 29, 2017 (GMT -0400)
Maple St. | | Change Station

Elev 164 ft 41.94 °N, 71.28 °W | Updated 23 seconds ago

Overcast
Overcast
39.4 °F
Feels Like 39 °F
N
2.0
Wind Variable Wind from NW
Gusts 5.0 mph

Today
High -- | Low -- °F
--% Chance of Precip.
Yesterday
High -- | Low -- °F
Precip. -- in
Pressure 30.05 in
Visibility 2.0 miles
Clouds Overcast 500 ft
Windchill 39 °F
Dew Point 37 °F
Humidity 91%
Rainfall 0.09 in
Snow Depth Not available.
6:32 AM 7:07 PM
Waxing Crescent, 3% visible
METAR KSFZ 291156Z AUTO 01011KT 2SM BR OVC005 03/03 A2998 RMK AO2 UPE02 SLP175 P0000 60000 70041 T00330028 10033 20028 53012
Pressure 30.05 in
Visibility 2.0 miles
Clouds Overcast 500 ft
Windchill 39 °F
Dew Point 37 °F
Humidity 91%
Rainfall 0.09 in
Snow Depth Not available.
6:32 AM 7:07 PM
Waxing Crescent, 3% visible
METAR KSFZ 291156Z AUTO 01011KT 2SM BR OVC005 03/03 A2998 RMK AO2 UPE02 SLP175 P0000 60000 70041 T00330028 10033 20028 53012

Get Severe Weather Alerts

Thanks for signing up!

Be on the lookout for a verification email in your inbox.

You'll start receiving the daily forecast at 8 AM.

×

10-Day Weather Forecast

Almanac

Astronomy

Mar. 29, 2017 Rise Set
Actual Time
Civil Twilight
Nautical Twilight
Astronomical Twilight
Moon
Length of Visible Light
Length of Day
Tomorrow will be .
, % of the Moon is Illuminated

Today's Extremes

State Highs State Lows

Community

WunderPhotos

Upload Photos

1,962,540 photos uploaded!

WunderBlog® & News

Nearby

Air Quality

  Air Quality AQ Index Pollutant
Not available.

Snow Depth

Station Depth Elevation

Earthquake Activity

City Distance Mag. Time & Date
Minimum magnitude displayed is 2.5.

Earthquake Activity

City Distance Mag. Time & Date
Minimum magnitude displayed is 2.5.

Coastal Water Temperatures

Place Temperature

Stations

Nearby Weather Stations

Station Location Temp. Windchill Dew Point Humidity Wind Precip. Elev Updated Type
                   

Watches & Warnings

There are currently no watches in effect.